Time;durP1;ratioP1;P1;durP2;ratioP2;P2;SDS_P1;SDS_P2;PMS_P1;PMS_P2;Temp;Humidity;BMP_temperature;BMP_pressure;BME280_temperature;BME280_humidity;BME280_pressure;Samples;Min_cycle;Max_cycle;Signal;HPM_P1;HPM_P2
2023/09/22 00:00:00;;;;;;;0.50;0.50;;;15.10;99.90;;;;;;5096028;28;20036;-74
2023/09/22 00:02:26;;;;;;;0.50;0.50;;;15.10;99.90;;;;;;5095516;28;20067;-73
2023/09/22 00:04:51;;;;;;;0.67;0.67;;;15.10;99.90;;;;;;5095925;28;20472;-73
2023/09/22 00:07:18;;;;;;;0.60;0.43;;;15.10;99.90;;;;;;5095566;28;20044;-73
2023/09/22 00:09:43;;;;;;;0.70;0.70;;;15.00;99.90;;;;;;5095033;28;20552;-74
2023/09/22 00:12:09;;;;;;;0.30;0.30;;;15.10;99.90;;;;;;5095087;28;20032;-74
2023/09/22 00:14:35;;;;;;;0.47;0.33;;;15.10;99.90;;;;;;5095744;28;20036;-73
2023/09/22 00:17:02;;;;;;;0.50;0.50;;;15.10;99.90;;;;;;5095390;28;20097;-74
2023/09/22 00:19:28;;;;;;;0.82;0.70;;;15.10;99.90;;;;;;5095310;28;20086;-74
2023/09/22 00:21:55;;;;;;;0.55;0.55;;;15.10;99.90;;;;;;5095224;28;20071;-73
2023/09/22 00:24:22;;;;;;;0.50;0.50;;;15.00;99.90;;;;;;5095259;28;20117;-73
2023/09/22 00:26:47;;;;;;;0.43;0.43;;;15.10;99.90;;;;;;5095046;28;20043;-73
2023/09/22 00:29:13;;;;;;;0.30;0.30;;;15.00;99.90;;;;;;5095487;28;20036;-74
2023/09/22 00:31:38;;;;;;;0.40;0.40;;;15.10;99.90;;;;;;5094758;28;20094;-73
2023/09/22 00:34:04;;;;;;;0.40;0.40;;;15.00;99.90;;;;;;5094798;28;20040;-74
2023/09/22 00:36:29;;;;;;;0.53;0.53;;;15.00;99.90;;;;;;5094644;28;20418;-74
2023/09/22 00:38:55;;;;;;;0.50;0.50;;;15.00;99.90;;;;;;5094949;28;20040;-74
2023/09/22 00:41:21;;;;;;;0.50;0.50;;;15.00;99.90;;;;;;5094732;28;20059;-73
2023/09/22 00:43:47;;;;;;;0.50;0.50;;;15.00;99.90;;;;;;5094822;28;20123;-73
2023/09/22 00:46:13;;;;;;;0.63;0.50;;;15.00;99.90;;;;;;5094430;28;20422;-74
2023/09/22 00:48:40;;;;;;;0.30;0.30;;;15.00;99.90;;;;;;5093853;28;20035;-74
2023/09/22 00:51:06;;;;;;;;;;;15.00;99.90;;;;;;5095091;28;20043;-73
2023/09/22 00:53:34;;;;;;;0.40;0.40;;;15.00;99.90;;;;;;5094630;28;19916;-74
2023/09/22 00:56:02;;;;;;;0.47;0.47;;;15.00;99.90;;;;;;5094531;28;20075;-73
2023/09/22 00:58:28;;;;;;;0.30;0.30;;;15.00;99.90;;;;;;5094947;28;20069;-73
2023/09/22 01:00:54;;;;;;;0.55;0.55;;;15.00;99.90;;;;;;5094493;28;20092;-74
2023/09/22 01:03:20;;;;;;;0.40;0.40;;;14.90;99.90;;;;;;5094533;28;20036;-73
2023/09/22 01:05:46;;;;;;;0.40;0.40;;;15.00;99.90;;;;;;5094411;28;20131;-74
2023/09/22 01:08:13;;;;;;;0.40;0.40;;;14.90;99.90;;;;;;5094209;28;20040;-73
2023/09/22 01:10:40;;;;;;;0.30;0.30;;;15.00;99.90;;;;;;5094246;28;20476;-74
2023/09/22 01:13:06;;;;;;;0.70;0.70;;;14.90;99.90;;;;;;5094468;28;20040;-73
2023/09/22 01:15:37;;;;;;;0.30;0.30;;;15.00;99.90;;;;;;5094576;28;20040;-73
2023/09/22 01:18:04;;;;;;;0.35;0.35;;;14.90;99.90;;;;;;5094209;28;20050;-74
2023/09/22 01:20:30;;;;;;;0.50;0.50;;;14.90;99.90;;;;;;5094120;28;20093;-73
2023/09/22 01:22:56;;;;;;;0.75;0.75;;;14.90;99.90;;;;;;5094085;28;20114;-74
2023/09/22 01:25:22;;;;;;;0.30;0.30;;;14.90;99.90;;;;;;5094147;28;20044;-74
2023/09/22 01:27:48;;;;;;;0.40;0.40;;;14.90;99.90;;;;;;5094077;28;20365;-73
2023/09/22 01:30:15;;;;;;;0.53;0.53;;;14.90;99.90;;;;;;5093855;28;20130;-74
2023/09/22 01:32:41;;;;;;;0.80;0.80;;;14.90;99.90;;;;;;5093978;28;20043;-73
2023/09/22 01:35:07;;;;;;;0.40;0.40;;;14.90;99.90;;;;;;5093936;28;20406;-74
2023/09/22 01:37:50;;;;;;;0.45;0.45;;;14.90;99.90;;;;;;5093906;28;20394;-74
2023/09/22 01:40:16;;;;;;;0.52;0.52;;;14.90;99.90;;;;;;5093962;28;20048;-74
2023/09/22 01:42:42;;;;;;;0.50;0.50;;;14.90;99.90;;;;;;5093828;28;20119;-73
2023/09/22 01:45:09;;;;;;;0.65;0.50;;;14.80;99.90;;;;;;5094165;28;20111;-74
2023/09/22 01:47:34;;;;;;;1.15;0.82;;;14.80;99.90;;;;;;5093761;28;20044;-73
2023/09/22 01:50:00;;;;;;;0.60;0.60;;;14.80;99.90;;;;;;5093805;28;20036;-74
2023/09/22 01:52:25;;;;;;;0.53;0.53;;;14.90;99.90;;;;;;5092555;28;20472;-73
2023/09/22 01:54:51;;;;;;;0.43;0.43;;;14.80;99.90;;;;;;5093991;28;20479;-74
2023/09/22 01:57:19;;;;;;;0.47;0.47;;;14.80;99.90;;;;;;5093904;28;20074;-73
2023/09/22 01:59:45;;;;;;;0.57;0.50;;;14.80;99.90;;;;;;5093697;28;20119;-74
2023/09/22 02:02:11;;;;;;;0.30;0.30;;;14.80;99.90;;;;;;5094087;28;20147;-74
2023/09/22 02:04:36;;;;;;;0.43;0.43;;;14.80;99.90;;;;;;5093631;28;20036;-73
2023/09/22 02:07:03;;;;;;;0.70;0.52;;;14.80;99.90;;;;;;5093628;28;20088;-73
2023/09/22 02:09:28;;;;;;;0.70;0.70;;;14.80;99.90;;;;;;5093729;28;20479;-73
2023/09/22 02:11:54;;;;;;;0.90;0.60;;;14.80;99.90;;;;;;5093992;28;20047;-73
2023/09/22 02:14:19;;;;;;;0.63;0.50;;;14.80;99.90;;;;;;5093547;28;20040;-73
2023/09/22 02:16:45;;;;;;;0.40;0.40;;;14.80;99.90;;;;;;5093620;28;20039;-73
2023/09/22 02:19:11;;;;;;;0.67;0.67;;;14.80;99.90;;;;;;5093405;28;20472;-74
2023/09/22 02:21:37;;;;;;;0.53;0.53;;;14.80;99.90;;;;;;5093068;28;20032;-73
2023/09/22 02:24:03;;;;;;;1.15;0.75;;;14.80;99.90;;;;;;5093550;28;20498;-73
2023/09/22 02:26:29;;;;;;;0.70;0.70;;;14.80;99.90;;;;;;5093851;28;20048;-73
2023/09/22 02:28:54;;;;;;;0.67;0.67;;;14.80;99.90;;;;;;5092457;28;20753;-73
2023/09/22 02:31:24;;;;;;;0.63;0.63;;;14.70;99.90;;;;;;5093583;28;20068;-73
2023/09/22 02:33:49;;;;;;;0.50;0.50;;;14.90;99.90;;;;;;5093373;28;20463;-73
2023/09/22 02:36:18;;;;;;;0.60;0.60;;;14.80;99.90;;;;;;5093066;28;20050;-74
2023/09/22 02:38:43;;;;;;;0.40;0.40;;;14.70;99.90;;;;;;5093350;28;20048;-73
2023/09/22 02:41:11;;;;;;;0.40;0.40;;;14.70;99.90;;;;;;5093201;28;20036;-73
2023/09/22 02:43:36;;;;;;;0.82;0.82;;;14.70;99.90;;;;;;5093378;28;20091;-73
2023/09/22 02:46:03;;;;;;;0.70;0.70;;;14.70;99.90;;;;;;5093244;28;20075;-74
2023/09/22 02:48:29;;;;;;;;;;;14.70;99.90;;;;;;5093682;28;20044;-73
2023/09/22 02:50:54;;;;;;;0.57;0.50;;;14.70;99.90;;;;;;5093108;28;20294;-74
2023/09/22 02:53:20;;;;;;;0.70;0.70;;;14.70;99.90;;;;;;5093650;28;20074;-73
2023/09/22 02:55:46;;;;;;;0.75;0.75;;;14.60;99.90;;;;;;5093246;28;20082;-74
2023/09/22 02:58:12;;;;;;;0.70;0.70;;;14.70;99.90;;;;;;5094247;28;20503;-74
2023/09/22 03:00:45;;;;;;;0.47;0.47;;;14.60;99.90;;;;;;5096908;28;20429;-73
2023/09/22 03:03:12;;;;;;;0.95;0.85;;;14.60;99.90;;;;;;5096623;28;20079;-73
2023/09/22 03:05:39;;;;;;;0.70;0.70;;;14.60;99.90;;;;;;5096605;28;20043;-73
2023/09/22 03:08:05;;;;;;;0.95;0.70;;;14.60;99.90;;;;;;5096369;28;20040;-73
2023/09/22 03:10:31;;;;;;;0.77;0.77;;;14.60;99.90;;;;;;5096636;28;20055;-73
2023/09/22 03:12:57;;;;;;;0.43;0.43;;;14.60;99.90;;;;;;5096571;28;20072;-74
2023/09/22 03:15:23;;;;;;;1.30;0.90;;;14.60;99.90;;;;;;5096308;28;20047;-73
2023/09/22 03:17:49;;;;;;;0.85;0.65;;;14.60;99.90;;;;;;5096567;28;20122;-73
2023/09/22 03:20:17;;;;;;;1.33;0.80;;;14.50;99.90;;;;;;5096455;28;20131;-74
2023/09/22 03:22:43;;;;;;;0.68;0.68;;;14.60;99.90;;;;;;5096085;28;20041;-74
2023/09/22 03:25:10;;;;;;;0.60;0.60;;;14.60;99.90;;;;;;5096540;28;20446;-73
2023/09/22 03:27:36;;;;;;;0.88;0.85;;;14.50;99.90;;;;;;5096397;28;20036;-73
2023/09/22 03:30:06;;;;;;;0.57;0.57;;;14.50;99.90;;;;;;5096286;28;20039;-73
2023/09/22 03:32:32;;;;;;;1.67;0.70;;;14.50;99.90;;;;;;5096316;28;20040;-74
2023/09/22 03:34:58;;;;;;;1.50;0.60;;;14.50;99.90;;;;;;5096211;28;20460;-72
2023/09/22 03:37:29;;;;;;;0.45;0.45;;;14.50;99.90;;;;;;5096551;28;20123;-73
2023/09/22 03:39:55;;;;;;;0.63;0.63;;;14.50;99.90;;;;;;5096035;28;20048;-73
2023/09/22 03:42:20;;;;;;;0.70;0.60;;;14.40;99.90;;;;;;5096002;28;20032;-73
2023/09/22 03:44:47;;;;;;;0.57;0.50;;;14.50;99.90;;;;;;5096190;28;20040;-73
2023/09/22 03:47:12;;;;;;;0.40;0.40;;;14.50;99.90;;;;;;5095954;28;20048;-75
2023/09/22 03:49:38;;;;;;;0.67;0.67;;;14.50;99.90;;;;;;5095918;28;20043;-73
2023/09/22 03:52:04;;;;;;;0.60;0.60;;;14.50;99.90;;;;;;5095919;28;20532;-74
2023/09/22 03:54:30;;;;;;;0.93;0.77;;;14.40;99.90;;;;;;5095880;28;20118;-74
2023/09/22 03:56:56;;;;;;;0.80;0.80;;;14.40;99.90;;;;;;5096038;28;20078;-75
2023/09/22 03:59:22;;;;;;;1.40;0.77;;;14.40;99.90;;;;;;5095745;28;20043;-73
2023/09/22 04:01:47;;;;;;;0.63;0.60;;;14.40;99.90;;;;;;5095631;28;20115;-74
2023/09/22 04:04:14;;;;;;;0.52;0.52;;;14.40;99.90;;;;;;5094560;28;20123;-74
2023/09/22 04:06:40;;;;;;;0.95;0.90;;;14.30;99.90;;;;;;5095647;28;20399;-75
2023/09/22 04:09:07;;;;;;;0.60;0.60;;;14.30;99.90;;;;;;5094990;28;20048;-74
2023/09/22 04:11:34;;;;;;;1.67;0.70;;;14.30;99.90;;;;;;5095036;28;20105;-73
2023/09/22 04:13:59;;;;;;;;;;;14.30;99.90;;;;;;5095857;28;20042;-73
2023/09/22 04:16:25;;;;;;;0.65;0.65;;;14.30;99.90;;;;;;5095306;28;20007;-73
2023/09/22 04:18:54;;;;;;;0.63;0.63;;;14.20;99.90;;;;;;5095068;28;20040;-73
2023/09/22 04:21:23;;;;;;;0.82;0.82;;;14.20;99.90;;;;;;5095187;28;20036;-73
2023/09/22 04:23:58;;;;;;;0.90;0.82;;;14.20;99.90;;;;;;5095195;28;20086;-73
2023/09/22 04:26:29;;;;;;;1.73;0.98;;;14.10;99.90;;;;;;5095166;28;20044;-74
2023/09/22 04:28:56;;;;;;;0.80;0.73;;;14.00;99.90;;;;;;5095326;28;20055;-73
2023/09/22 04:31:25;;;;;;;;;;;14.00;99.90;;;;;;5095499;28;20097;-74
2023/09/22 04:33:52;;;;;;;0.63;0.60;;;14.00;99.90;;;;;;5095307;28;19916;-73
2023/09/22 04:36:23;;;;;;;;;;;14.00;99.90;;;;;;5095486;28;20088;-73
2023/09/22 04:38:52;;;;;;;1.20;0.90;;;13.90;99.90;;;;;;5095400;28;20076;-73
2023/09/22 04:41:20;;;;;;;0.47;0.47;;;13.80;99.90;;;;;;5094843;28;20043;-75
2023/09/22 04:43:46;;;;;;;0.57;0.57;;;13.80;99.90;;;;;;5094876;28;20383;-73
2023/09/22 04:46:12;;;;;;;5.63;1.10;;;13.70;99.90;;;;;;5094777;28;20051;-73
2023/09/22 04:48:38;;;;;;;0.90;0.90;;;13.70;99.90;;;;;;5094749;28;20043;-73
2023/09/22 04:51:05;;;;;;;1.17;1.08;;;13.70;99.90;;;;;;5094608;28;20114;-73
2023/09/22 04:53:32;;;;;;;2.30;0.80;;;13.60;99.90;;;;;;5094705;28;20121;-73
2023/09/22 04:56:06;;;;;;;0.50;0.50;;;13.50;99.90;;;;;;5094634;28;20036;-76
2023/09/22 04:58:32;;;;;;;0.60;0.50;;;13.50;99.90;;;;;;5094466;28;20357;-73
2023/09/22 05:00:58;;;;;;;1.35;1.02;;;13.50;99.90;;;;;;5094480;28;20040;-73
2023/09/22 05:03:26;;;;;;;1.20;0.80;;;13.50;99.90;;;;;;5094300;28;20070;-74
2023/09/22 05:05:53;;;;;;;1.05;0.82;;;13.40;99.90;;;;;;5094639;28;20079;-72
2023/09/22 05:08:19;;;;;;;2.55;0.90;;;13.40;99.90;;;;;;5093177;28;20084;-72
2023/09/22 05:10:48;;;;;;;1.60;1.30;;;13.30;99.90;;;;;;5094382;28;20085;-71
2023/09/22 05:13:15;;;;;;;1.08;0.95;;;13.30;99.90;;;;;;5094183;28;20903;-72
2023/09/22 05:15:43;;;;;;;1.17;1.08;;;13.30;99.90;;;;;;5094144;28;20467;-71
2023/09/22 05:18:15;;;;;;;1.13;0.85;;;13.30;99.90;;;;;;5094485;28;20040;-72
2023/09/22 05:20:41;;;;;;;1.13;0.80;;;13.30;99.90;;;;;;5093933;28;20079;-71
2023/09/22 05:23:09;;;;;;;3.05;1.52;;;13.20;99.90;;;;;;5094071;28;20367;-71
2023/09/22 05:25:40;;;;;;;0.80;0.80;;;13.20;99.90;;;;;;5093931;28;20097;-71
2023/09/22 05:28:09;;;;;;;0.80;0.80;;;13.20;99.90;;;;;;5093772;28;20040;-71
2023/09/22 05:30:38;;;;;;;1.25;1.15;;;13.10;99.90;;;;;;5094026;28;20032;-71
2023/09/22 05:33:07;;;;;;;0.63;0.57;;;13.10;99.90;;;;;;5093980;28;20087;-71
2023/09/22 05:35:36;;;;;;;0.80;0.80;;;13.10;99.90;;;;;;5093951;28;20075;-71
2023/09/22 05:38:06;;;;;;;1.10;1.00;;;13.10;99.90;;;;;;5093844;28;20036;-71
2023/09/22 05:40:35;;;;;;;1.33;1.00;;;13.10;99.90;;;;;;5092774;28;20437;-71
2023/09/22 05:43:13;;;;;;;0.85;0.80;;;13.10;99.90;;;;;;5093593;28;20459;-71
2023/09/22 05:45:39;;;;;;;0.88;0.88;;;13.10;99.90;;;;;;5093024;28;20437;-71
2023/09/22 05:48:07;;;;;;;1.23;1.13;;;13.00;99.90;;;;;;5093851;28;20170;-72
2023/09/22 05:50:35;;;;;;;1.77;1.10;;;13.00;99.90;;;;;;5092421;28;20507;-72
2023/09/22 05:53:04;;;;;;;1.48;1.38;;;13.00;99.90;;;;;;5094055;28;20044;-71
2023/09/22 05:55:30;;;;;;;1.52;1.00;;;13.00;99.90;;;;;;5094351;28;20063;-72
2023/09/22 05:57:56;;;;;;;1.52;1.42;;;13.00;99.90;;;;;;5094117;28;20048;-72
2023/09/22 06:00:26;;;;;;;1.40;0.90;;;13.00;99.90;;;;;;5093888;28;20036;-71
2023/09/22 06:02:52;;;;;;;0.75;0.75;;;13.00;99.90;;;;;;5092445;28;20391;-72
2023/09/22 06:05:20;;;;;;;1.13;1.02;;;13.20;99.90;;;;;;5093675;28;20379;-71
2023/09/22 06:07:46;;;;;;;0.95;0.85;;;13.10;99.90;;;;;;5093688;28;20036;-72
2023/09/22 06:10:12;;;;;;;0.60;0.60;;;13.10;99.90;;;;;;5094022;28;20052;-71
2023/09/22 06:12:38;;;;;;;0.82;0.70;;;13.20;99.90;;;;;;5093602;28;20123;-74
2023/09/22 06:15:08;;;;;;;1.03;0.60;;;13.20;99.90;;;;;;5093738;28;20086;-73
2023/09/22 06:17:37;;;;;;;1.38;1.15;;;13.20;99.90;;;;;;5093487;28;20043;-74
2023/09/22 06:20:18;;;;;;;1.35;0.93;;;13.20;99.90;;;;;;5093227;28;20404;-75
2023/09/22 06:22:47;;;;;;;0.70;0.70;;;13.20;99.90;;;;;;5093308;28;20509;-74
2023/09/22 06:25:13;;;;;;;1.38;0.90;;;13.30;99.90;;;;;;5093723;28;20044;-74
2023/09/22 06:27:41;;;;;;;0.55;0.55;;;13.30;99.90;;;;;;5093521;28;20075;-75
2023/09/22 06:30:11;;;;;;;0.60;0.60;;;13.30;99.90;;;;;;5093406;28;20051;-75
2023/09/22 06:32:42;;;;;;;0.68;0.60;;;13.30;99.90;;;;;;5093459;28;20036;-75
2023/09/22 06:35:11;;;;;;;0.90;0.70;;;13.40;99.90;;;;;;5097467;28;20044;-74
2023/09/22 06:37:41;;;;;;;1.08;0.95;;;13.40;99.90;;;;;;5097278;28;20122;-75
2023/09/22 06:40:11;;;;;;;0.60;0.60;;;13.50;99.90;;;;;;5097177;28;20042;-75
2023/09/22 06:42:39;;;;;;;0.52;0.52;;;13.50;99.90;;;;;;5097015;28;20047;-79
2023/09/22 06:45:05;;;;;;;1.13;1.02;;;13.50;99.90;;;;;;5096777;28;20040;-73
2023/09/22 06:47:33;;;;;;;0.68;0.68;;;13.50;99.90;;;;;;5096961;28;20108;-76
2023/09/22 06:49:59;;;;;;;0.40;0.40;;;13.60;99.90;;;;;;5097220;28;20044;-76
2023/09/22 06:52:25;;;;;;;0.80;0.80;;;13.60;99.90;;;;;;5097027;28;20426;-76
2023/09/22 06:54:50;;;;;;;0.50;0.50;;;13.60;99.90;;;;;;5097029;28;20327;-75
2023/09/22 06:57:16;;;;;;;6.37;1.17;;;13.70;99.90;;;;;;5096828;28;20114;-75
2023/09/22 06:59:42;;;;;;;0.73;0.73;;;13.70;99.90;;;;;;5096852;28;20119;-74
2023/09/22 07:02:08;;;;;;;0.50;0.50;;;13.70;99.90;;;;;;5096967;28;20371;-75
2023/09/22 07:04:35;;;;;;;0.93;0.75;;;13.70;99.90;;;;;;5095636;28;20040;-75
2023/09/22 07:07:02;;;;;;;;;;;13.70;99.90;;;;;;5097402;28;20046;-75
2023/09/22 07:09:27;;;;;;;1.05;0.95;;;13.80;99.90;;;;;;5096077;28;19916;-75
2023/09/22 07:11:53;;;;;;;1.20;0.87;;;13.80;99.90;;;;;;5096477;28;20565;-75
2023/09/22 07:14:19;;;;;;;1.23;1.13;;;13.80;99.90;;;;;;5095018;28;20043;-75
2023/09/22 07:16:44;;;;;;;1.57;0.90;;;13.90;99.90;;;;;;5096561;28;20129;-75
2023/09/22 07:19:10;;;;;;;4.40;0.93;;;13.90;99.90;;;;;;5096807;28;20121;-75
2023/09/22 07:21:36;;;;;;;0.40;0.40;;;13.90;99.90;;;;;;5095046;28;20063;-76
2023/09/22 07:24:02;;;;;;;0.60;0.60;;;14.00;99.90;;;;;;5096026;28;20123;-74
2023/09/22 07:26:28;;;;;;;0.90;0.90;;;14.00;99.90;;;;;;5095923;28;20766;-74
2023/09/22 07:28:53;;;;;;;0.73;0.70;;;14.00;99.90;;;;;;5096166;28;20119;-72
2023/09/22 07:31:20;;;;;;;0.57;0.57;;;14.10;99.90;;;;;;5096133;28;20357;-72
2023/09/22 07:33:46;;;;;;;;;;;14.10;99.90;;;;;;5096454;28;20423;-73
2023/09/22 07:36:12;;;;;;;0.70;0.70;;;14.10;99.90;;;;;;5096090;28;19922;-74
2023/09/22 07:38:38;;;;;;;1.45;0.80;;;14.20;99.90;;;;;;5096099;28;20032;-73
2023/09/22 07:41:04;;;;;;;0.47;0.47;;;14.20;99.90;;;;;;5095721;28;20044;-72
2023/09/22 07:43:30;;;;;;;0.73;0.50;;;14.20;99.90;;;;;;5095666;28;20044;-76
2023/09/22 07:45:57;;;;;;;2.20;0.80;;;14.20;99.90;;;;;;5095828;28;20044;-72
2023/09/22 07:48:24;;;;;;;0.95;0.63;;;14.30;99.90;;;;;;5095865;28;20040;-73
2023/09/22 07:50:50;;;;;;;1.20;1.10;;;14.30;99.90;;;;;;5095955;28;20032;-72
2023/09/22 07:53:16;;;;;;;0.50;0.50;;;14.40;99.90;;;;;;5095616;28;20040;-72
2023/09/22 07:55:42;;;;;;;0.37;0.37;;;14.30;99.90;;;;;;5095374;28;20501;-75
2023/09/22 07:58:09;;;;;;;0.85;0.50;;;14.30;99.90;;;;;;5095226;28;20075;-73
2023/09/22 08:00:34;;;;;;;;;;;14.30;99.90;;;;;;5095688;28;20494;-73
2023/09/22 08:03:00;;;;;;;0.40;0.40;;;14.30;99.90;;;;;;5095198;28;19915;-72
2023/09/22 08:05:27;;;;;;;1.17;1.02;;;14.30;99.90;;;;;;5095251;28;20118;-75
2023/09/22 08:07:53;;;;;;;0.80;0.77;;;14.30;99.90;;;;;;5095434;28;20130;-73
2023/09/22 08:10:22;;;;;;;0.82;0.50;;;14.30;99.90;;;;;;5093522;28;20047;-74
2023/09/22 08:12:49;;;;;;;0.65;0.50;;;14.30;99.90;;;;;;5095281;28;20113;-73
2023/09/22 08:15:14;;;;;;;0.82;0.82;;;14.40;99.90;;;;;;5095612;28;20044;-73
2023/09/22 08:17:45;;;;;;;2.55;0.90;;;14.40;99.90;;;;;;5095268;28;20044;-73
2023/09/22 08:20:12;;;;;;;0.40;0.40;;;14.50;99.90;;;;;;5095371;28;20097;-73
2023/09/22 08:22:39;;;;;;;0.50;0.50;;;14.60;99.90;;;;;;5095129;28;20043;-74
2023/09/22 08:25:08;;;;;;;0.40;0.40;;;14.60;99.90;;;;;;5094703;28;20043;-73
2023/09/22 08:27:35;;;;;;;0.52;0.52;;;14.70;99.90;;;;;;5094613;28;20483;-73
2023/09/22 08:30:11;;;;;;;0.50;0.50;;;14.80;99.90;;;;;;5095153;28;20051;-75
2023/09/22 08:32:42;;;;;;;0.60;0.60;;;14.80;99.90;;;;;;5095018;28;20039;-74
2023/09/22 08:35:12;;;;;;;0.30;0.30;;;14.90;99.90;;;;;;5086359;28;20052;-75
2023/09/22 08:37:42;;;;;;;0.50;0.50;;;14.90;99.90;;;;;;5076525;28;20037;-73
2023/09/22 08:40:11;;;;;;;0.68;0.63;;;15.00;99.90;;;;;;5094096;28;20051;-73
2023/09/22 08:42:37;;;;;;;0.40;0.40;;;15.10;99.90;;;;;;5094251;28;20040;-72
2023/09/22 08:45:06;;;;;;;;;;;15.20;99.90;;;;;;5075162;28;20048;-74
2023/09/22 08:47:40;;;;;;;1.85;0.55;;;15.30;99.90;;;;;;5090614;28;19923;-73
2023/09/22 08:50:12;;;;;;;0.60;0.60;;;15.40;99.90;;;;;;5085289;28;20484;-73
2023/09/22 08:52:42;;;;;;;0.35;0.35;;;15.40;99.90;;;;;;5094829;28;20044;-73
2023/09/22 08:55:11;;;;;;;1.00;0.60;;;15.50;99.90;;;;;;5084849;28;20036;-73
2023/09/22 08:57:40;;;;;;;0.50;0.40;;;15.70;99.90;;;;;;5076237;28;20116;-73
2023/09/22 09:00:12;;;;;;;0.43;0.43;;;15.80;99.90;;;;;;5087428;28;20040;-73
2023/09/22 09:02:38;;;;;;;0.43;0.43;;;15.90;99.90;;;;;;5094157;28;20046;-71
2023/09/22 09:05:21;;;;;;;0.30;0.30;;;15.90;99.90;;;;;;5094241;28;20058;-72
2023/09/22 09:07:48;;;;;;;0.45;0.45;;;16.00;99.90;;;;;;5093267;28;20538;-70
2023/09/22 09:10:33;;;;;;;;;;;16.10;99.90;;;;;;5074514;28;20083;-71
2023/09/22 09:13:03;;;;;;;0.32;0.32;;;16.10;99.90;;;;;;5073907;28;19916;-70
2023/09/22 09:15:30;;;;;;;0.50;0.50;;;16.10;99.90;;;;;;5072629;28;20044;-72
2023/09/22 09:18:03;;;;;;;0.47;0.47;;;16.20;99.90;;;;;;5073641;28;20490;-71
2023/09/22 09:20:30;;;;;;;0.30;0.30;;;16.20;99.90;;;;;;5073568;28;20115;-70
2023/09/22 09:22:55;;;;;;;0.30;0.30;;;16.20;99.90;;;;;;5072562;28;20028;-70
2023/09/22 09:25:21;;;;;;;0.73;0.73;;;16.20;99.90;;;;;;5073598;28;20067;-72
2023/09/22 09:27:58;;;;;;;0.47;0.47;;;16.20;99.90;;;;;;5073860;28;20094;-70
2023/09/22 09:30:24;;;;;;;0.40;0.40;;;16.20;99.90;;;;;;5073691;28;20055;-71
2023/09/22 09:32:49;;;;;;;0.40;0.40;;;16.30;99.90;;;;;;5073645;28;20539;-71
2023/09/22 09:35:28;;;;;;;0.40;0.40;;;16.40;99.90;;;;;;5073644;28;20356;-70
2023/09/22 09:38:02;;;;;;;0.30;0.30;;;16.50;99.90;;;;;;5075787;28;20383;-71
2023/09/22 09:40:27;;;;;;;0.40;0.40;;;16.60;99.90;;;;;;5093655;28;20048;-71
2023/09/22 09:42:54;;;;;;;0.30;0.30;;;16.80;99.90;;;;;;5093289;28;20044;-71
2023/09/22 09:45:23;;;;;;;0.40;0.40;;;16.80;99.90;;;;;;5093634;28;20502;-73
2023/09/22 09:47:54;;;;;;;0.28;0.28;;;16.80;99.90;;;;;;5093956;28;20392;-71
2023/09/22 09:50:21;;;;;;;0.30;0.30;;;16.80;99.90;;;;;;5093996;28;20040;-71
2023/09/22 09:52:57;;;;;;;0.30;0.30;;;16.70;99.90;;;;;;5093254;28;20040;-71
2023/09/22 09:55:24;;;;;;;0.30;0.30;;;16.60;99.90;;;;;;5093539;28;20047;-72
2023/09/22 09:57:55;;;;;;;0.50;0.50;;;16.50;99.90;;;;;;5094442;28;20364;-75
2023/09/22 10:00:21;;;;;;;0.30;0.30;;;16.50;99.90;;;;;;5096229;28;20093;-75
2023/09/22 10:02:48;;;;;;;0.30;0.30;;;16.50;99.90;;;;;;5092316;28;20044;-71
2023/09/22 10:05:17;;;;;;;0.55;0.50;;;16.40;99.90;;;;;;5093483;28;20123;-71
2023/09/22 10:07:44;;;;;;;0.40;0.40;;;16.40;99.90;;;;;;5093846;28;20071;-73
2023/09/22 10:10:11;;;;;;;0.30;0.30;;;16.30;99.90;;;;;;5097756;28;20121;-70
2023/09/22 10:12:38;;;;;;;0.30;0.30;;;16.20;99.90;;;;;;5097687;28;20067;-71
2023/09/22 10:15:05;;;;;;;0.30;0.30;;;16.10;99.90;;;;;;5097566;28;20496;-70
2023/09/22 10:17:31;;;;;;;0.30;0.30;;;16.00;99.90;;;;;;5097279;28;20044;-70
2023/09/22 10:20:01;;;;;;;0.40;0.40;;;16.00;99.90;;;;;;5097355;28;20036;-73
2023/09/22 10:22:29;;;;;;;1.10;0.63;;;15.90;99.90;;;;;;5097215;28;20047;-74
2023/09/22 10:25:13;;;;;;;0.40;0.40;;;16.00;99.90;;;;;;5097315;28;20097;-69
2023/09/22 10:27:58;;;;;;;0.30;0.30;;;16.10;99.90;;;;;;5097266;28;20043;-68
2023/09/22 10:30:54;;;;;;;0.30;0.30;;;16.10;99.90;;;;;;5097312;28;20039;-68
2023/09/22 10:33:22;;;;;;;3.92;0.30;;;16.20;99.90;;;;;;5097250;28;20040;-69
2023/09/22 10:35:49;;;;;;;0.30;0.30;;;16.20;99.90;;;;;;5096839;28;20036;-72
2023/09/22 10:38:15;;;;;;;0.30;0.30;;;16.20;99.90;;;;;;5097161;28;20043;-69
2023/09/22 10:41:02;;;;;;;0.30;0.30;;;16.20;99.90;;;;;;5097003;28;20392;-70
2023/09/22 10:43:29;;;;;;;0.40;0.40;;;16.30;99.90;;;;;;5096895;28;20056;-70
2023/09/22 10:45:55;;;;;;;0.40;0.40;;;16.60;99.90;;;;;;5096933;28;20043;-69
2023/09/22 10:48:22;;;;;;;0.47;0.47;;;16.80;99.90;;;;;;5096980;28;20383;-76
2023/09/22 10:50:52;;;;;;;0.30;0.30;;;17.00;99.90;;;;;;5096954;28;20044;-73
2023/09/22 10:53:18;;;;;;;0.43;0.43;;;17.10;99.90;;;;;;5096359;28;20043;-73
2023/09/22 10:55:45;;;;;;;0.30;0.30;;;17.10;99.90;;;;;;5096904;28;20379;-77
2023/09/22 10:58:16;;;;;;;0.47;0.40;;;17.20;99.90;;;;;;5096730;28;20467;-76
2023/09/22 11:01:07;;;;;;;0.30;0.30;;;17.20;99.90;;;;;;5096933;28;20119;-77
2023/09/22 11:03:33;;;;;;;0.30;0.30;;;17.20;99.90;;;;;;5097079;28;20052;-76
2023/09/22 11:06:06;;;;;;;0.30;0.30;;;17.10;99.90;;;;;;5096966;28;20046;-77
2023/09/22 11:08:33;;;;;;;0.30;0.30;;;17.00;99.90;;;;;;5096645;28;20052;-78
2023/09/22 11:11:00;;;;;;;0.30;0.30;;;17.00;99.90;;;;;;5096869;28;20082;-77
2023/09/22 11:13:27;;;;;;;0.20;0.20;;;16.90;99.90;;;;;;5096703;28;20067;-72
2023/09/22 11:15:57;;;;;;;0.25;0.25;;;17.00;99.90;;;;;;5096798;28;20048;-77
2023/09/22 11:18:29;;;;;;;0.30;0.30;;;17.10;99.90;;;;;;5096280;28;20055;-74
2023/09/22 11:20:58;;;;;;;0.30;0.30;;;17.30;99.90;;;;;;5096497;28;20040;-75
2023/09/22 11:23:26;;;;;;;0.35;0.35;;;17.30;99.90;;;;;;5095011;28;20119;-73
2023/09/22 11:26:09;;;;;;;0.30;0.30;;;17.30;99.90;;;;;;5096464;28;20127;-74
2023/09/22 11:28:48;;;;;;;0.43;0.43;;;17.30;99.90;;;;;;5096573;28;20119;-76
2023/09/22 11:31:17;;;;;;;0.30;0.30;;;17.30;99.90;;;;;;5096344;28;20467;-74
2023/09/22 11:33:44;;;;;;;0.30;0.30;;;17.30;99.90;;;;;;5096110;28;20051;-75
2023/09/22 11:36:10;;;;;;;0.30;0.30;;;17.30;99.90;;;;;;5096221;28;20036;-74
2023/09/22 11:38:40;;;;;;;0.30;0.30;;;17.30;99.90;;;;;;5096172;28;20123;-74
2023/09/22 11:41:10;;;;;;;0.30;0.30;;;17.30;99.90;;;;;;5096078;28;20406;-74
2023/09/22 11:43:48;;;;;;;0.30;0.30;;;17.30;99.90;;;;;;5095080;28;20368;-73
2023/09/22 11:46:23;;;;;;;0.30;0.30;;;17.50;99.90;;;;;;5096022;28;20475;-72
2023/09/22 11:48:57;;;;;;;0.38;0.38;;;17.80;99.90;;;;;;5094645;28;20109;-74
2023/09/22 11:52:07;;;;;;;0.60;0.47;;;18.00;99.90;;;;;;5092924;28;20364;-74
2023/09/22 11:54:34;;;;;;;0.30;0.30;;;18.10;99.90;;;;;;5085201;28;20074;-74
2023/09/22 11:57:00;;;;;;;0.30;0.30;;;18.10;99.90;;;;;;5094692;28;20043;-74
2023/09/22 11:59:34;;;;;;;0.30;0.30;;;18.20;99.90;;;;;;5093830;28;20036;-74
2023/09/22 12:02:01;;;;;;;0.50;0.32;;;18.20;99.90;;;;;;5095973;28;20040;-74
2023/09/22 12:04:26;;;;;;;0.30;0.30;;;18.20;99.90;;;;;;5095736;28;20044;-73
2023/09/22 12:06:53;;;;;;;0.30;0.30;;;18.20;99.90;;;;;;5095672;28;20051;-74
2023/09/22 12:09:19;;;;;;;0.30;0.30;;;18.20;99.90;;;;;;5095445;28;20048;-74
2023/09/22 12:11:46;;;;;;;0.30;0.30;;;18.30;99.90;;;;;;5095563;28;20036;-75
2023/09/22 12:14:12;;;;;;;0.25;0.25;;;18.40;99.90;;;;;;5095380;28;20039;-75
2023/09/22 12:16:41;;;;;;;0.30;0.30;;;18.50;99.90;;;;;;5095656;28;20391;-74
2023/09/22 12:19:07;;;;;;;0.30;0.30;;;18.60;99.90;;;;;;5095400;28;20123;-74
2023/09/22 12:21:34;;;;;;;0.28;0.28;;;18.70;99.90;;;;;;5094269;28;20047;-74
2023/09/22 12:24:00;;;;;;;0.30;0.30;;;18.70;99.90;;;;;;5095335;28;20123;-74
2023/09/22 12:26:25;;;;;;;0.30;0.30;;;18.80;99.90;;;;;;5095180;28;20078;-74
2023/09/22 12:28:51;;;;;;;0.20;0.20;;;18.80;99.90;;;;;;5095585;28;20036;-74
2023/09/22 12:31:18;;;;;;;0.35;0.35;;;18.90;99.90;;;;;;5093046;28;20123;-75
2023/09/22 12:33:44;;;;;;;;;;;18.90;99.90;;;;;;5095495;28;20040;-74
2023/09/22 12:36:18;;;;;;;0.30;0.30;;;18.80;99.90;;;;;;5095037;28;19916;-74
2023/09/22 12:38:45;;;;;;;0.30;0.30;;;18.60;99.90;;;;;;5095122;28;20071;-74
2023/09/22 12:41:11;;;;;;;0.30;0.30;;;18.50;99.90;;;;;;5094930;28;20043;-74
2023/09/22 12:43:37;;;;;;;0.30;0.30;;;18.40;99.90;;;;;;5094945;28;20051;-74
2023/09/22 12:46:13;;;;;;;0.22;0.22;;;18.20;99.90;;;;;;5095098;28;20474;-74
2023/09/22 12:48:42;;;;;;;0.30;0.30;;;18.20;99.90;;;;;;5095060;28;20497;-74
2023/09/22 12:51:11;;;;;;;0.30;0.30;;;18.10;99.90;;;;;;5094803;28;20062;-74
2023/09/22 12:53:38;;;;;;;0.30;0.30;;;18.10;99.90;;;;;;5094679;28;20430;-75